createdAt,value
2019-05-04T00:02:10.583Z,"    0"
2019-05-04T00:07:07.008Z,"    0"
2019-05-04T00:12:04.636Z,"    0"
2019-05-04T00:17:00.043Z,"    0"
2019-05-04T00:21:56.512Z,"    0"
2019-05-04T00:26:52.365Z,"    0"
2019-05-04T00:31:48.539Z,"    0"
2019-05-04T00:36:44.593Z,"    0"
2019-05-04T00:41:40.180Z,"    0"
2019-05-04T00:46:36.264Z,"    0"
2019-05-04T00:51:31.870Z,"    0"
2019-05-04T00:56:27.592Z,"    0"
2019-05-04T01:01:25.188Z,"    0"
2019-05-04T01:06:20.748Z,"    0"
2019-05-04T01:11:17.474Z,"    0"
2019-05-04T01:16:14.473Z,"    0"
2019-05-04T01:21:09.694Z,"    0"
2019-05-04T01:26:07.944Z,"    0"
2019-05-04T01:31:04.473Z,"    0"
2019-05-04T01:35:59.490Z,"    0"
2019-05-04T01:40:56.606Z,"    0"
2019-05-04T01:45:52.173Z,"    0"
2019-05-04T01:50:48.984Z,"    0"
2019-05-04T01:55:45.085Z,"    0"
2019-05-04T02:00:40.846Z,"    0"
2019-05-04T02:05:36.244Z,"    0"
2019-05-04T02:10:32.020Z,"    0"
2019-05-04T02:15:28.731Z,"    0"
2019-05-04T02:20:25.878Z,"    0"
2019-05-04T02:25:21.145Z,"    0"
2019-05-04T02:30:16.909Z,"    0"
2019-05-04T02:35:12.679Z,"    0"
2019-05-04T02:40:08.480Z,"    0"
2019-05-04T02:45:05.779Z,"    0"
2019-05-04T02:50:01.893Z,"    0"
2019-05-04T02:54:58.842Z,"    0"
2019-05-04T02:59:56.362Z,"    0"
2019-05-04T03:04:51.528Z,"    0"
2019-05-04T03:09:47.757Z,"    0"
2019-05-04T03:14:45.579Z,"    0"
2019-05-04T03:19:40.862Z,"    0"
2019-05-04T03:24:36.207Z,"    0"
2019-05-04T03:29:31.958Z,"    0"
2019-05-04T03:34:51.600Z,"    0"
2019-05-04T03:39:27.074Z,"    0"
2019-05-04T03:44:25.615Z,"    0"
2019-05-04T03:49:20.612Z,"    0"
2019-05-04T03:54:16.426Z,"    0"
2019-05-04T03:59:11.997Z,"    0"
2019-05-04T04:04:07.538Z,"    0"
2019-05-04T04:09:10.440Z,"    0"
2019-05-04T04:14:05.334Z,"    0"
2019-05-04T04:19:00.445Z,"    5"
2019-05-04T04:23:57.121Z,"    5"
2019-05-04T04:28:55.562Z,"   10"
2019-05-04T04:33:56.560Z,"   10"
2019-05-04T04:38:49.748Z,"   15"
2019-05-04T04:43:45.792Z,"   20"
2019-05-04T04:48:43.091Z,"   25"
2019-05-04T04:53:39.128Z,"   35"
2019-05-04T04:58:35.161Z,"   40"
2019-05-04T05:03:31.622Z,"   50"
2019-05-04T05:08:28.289Z,"   60"
2019-05-04T05:13:25.127Z,"   70"
2019-05-04T05:18:21.006Z,"   75"
2019-05-04T05:23:17.037Z,"   75"
2019-05-04T05:28:15.145Z,"   85"
2019-05-04T05:33:10.360Z,"   80"
2019-05-04T05:38:06.399Z,"   80"
2019-05-04T05:43:02.141Z,"   80"
2019-05-04T05:47:58.442Z,"   90"
2019-05-04T05:52:55.471Z,"   90"
2019-05-04T05:57:55.846Z,"  100"
2019-05-04T06:02:53.572Z,"  105"
2019-05-04T06:07:49.870Z,"   95"
2019-05-04T06:12:45.436Z,"   95"
2019-05-04T06:17:41.429Z,"   95"
2019-05-04T06:22:37.216Z,"  100"
2019-05-04T06:27:35.005Z,"  105"
2019-05-04T06:32:30.280Z,"  140"
2019-05-04T06:37:28.602Z,"  105"
2019-05-04T06:42:25.100Z,"  105"
2019-05-04T06:47:21.525Z,"  105"
2019-05-04T06:52:24.872Z,"  115"
2019-05-04T06:57:20.418Z,"  135"
2019-05-04T07:02:15.734Z,"  145"
2019-05-04T07:07:12.755Z,"  205"
2019-05-04T07:12:11.753Z,"  210"
2019-05-04T07:17:09.449Z,"  190"
2019-05-04T07:22:07.606Z,"  175"
2019-05-04T07:27:04.354Z,"  210"
2019-05-04T07:31:59.972Z,"  190"
2019-05-04T07:36:56.986Z,"  255"
2019-05-04T07:41:56.467Z,"  510"
2019-05-04T07:46:54.300Z,"  250"
2019-05-04T07:51:53.916Z,"  190"
2019-05-04T07:56:53.010Z,"  295"
2019-05-04T08:01:52.059Z,"  225"
2019-05-04T08:06:49.692Z,"  250"
2019-05-04T08:11:50.396Z,"  155"
2019-05-04T08:16:45.352Z,"  225"
2019-05-04T08:21:42.058Z,"  240"
2019-05-04T08:26:38.484Z," 1435"
2019-05-04T08:31:35.870Z," 1530"
2019-05-04T08:36:32.186Z,"  255"
2019-05-04T08:41:26.820Z,"  215"
2019-05-04T08:46:21.836Z,"  170"
2019-05-04T08:51:20.590Z,"  300"
2019-05-04T08:56:21.377Z,"  225"
2019-05-04T09:01:16.273Z,"  410"
2019-05-04T09:06:15.871Z,"  315"
2019-05-04T09:11:16.688Z,"  275"
2019-05-04T09:16:15.037Z,"  725"
2019-05-04T09:21:15.917Z,"  200"
2019-05-04T09:26:13.127Z," 1555"
2019-05-04T09:31:12.128Z,"  235"
2019-05-04T09:36:09.046Z,"  370"
2019-05-04T09:41:05.376Z," 1620"
2019-05-04T09:46:06.853Z,"  265"
2019-05-04T09:51:02.217Z," 1590"
2019-05-04T09:55:59.202Z," 1770"
2019-05-04T10:00:56.264Z,"  260"
2019-05-04T10:05:50.588Z," 1850"
2019-05-04T10:10:47.138Z,"  330"
2019-05-04T10:15:42.076Z," 1890"
2019-05-04T10:20:40.907Z," 1720"
2019-05-04T10:25:37.631Z," 1780"
2019-05-04T10:30:35.022Z,"  310"
2019-05-04T10:35:28.501Z,"  955"
2019-05-04T10:40:25.765Z," 1875"
2019-05-04T10:45:21.800Z,"  475"
2019-05-04T10:50:15.456Z,"  130"
2019-05-04T10:55:11.478Z,"  500"
2019-05-04T11:00:06.579Z,"  415"
2019-05-04T11:05:01.387Z,"  390"
2019-05-04T11:09:56.596Z,"  355"
2019-05-04T11:14:51.960Z,"  385"
2019-05-04T11:19:49.968Z," 1955"
2019-05-04T11:24:49.181Z," 1585"
2019-05-04T11:29:50.801Z,"  795"
2019-05-04T11:34:48.065Z," 1650"
2019-05-04T11:39:44.924Z," 1845"
2019-05-04T11:44:41.139Z," 1880"
2019-05-04T11:49:39.586Z," 1835"
2019-05-04T11:54:35.254Z," 1775"
2019-05-04T11:59:31.647Z," 1915"
2019-05-04T12:04:25.015Z,"  160"
2019-05-04T12:09:18.089Z,"  180"
2019-05-04T12:14:14.484Z,"  205"
2019-05-04T12:19:09.030Z,"  220"
2019-05-04T12:24:05.237Z,"  175"
2019-05-04T12:29:00.367Z,"  920"
2019-05-04T12:34:00.388Z," 1840"
2019-05-04T12:38:55.789Z,"  195"
2019-05-04T12:43:59.302Z,"  490"
2019-05-04T12:48:49.607Z,"  180"
2019-05-04T12:53:45.944Z,"  390"
2019-05-04T12:58:44.754Z," 1410"
2019-05-04T13:03:41.100Z,"  765"
2019-05-04T13:08:36.685Z,"  190"
2019-05-04T13:13:31.586Z,"   60"
2019-05-04T13:18:26.179Z,"   75"
2019-05-04T13:23:21.332Z,"   35"
2019-05-04T13:28:16.279Z,"   25"
2019-05-04T13:33:11.349Z,"   45"
2019-05-04T13:38:06.863Z,"   80"
2019-05-04T13:43:04.295Z,"  145"
2019-05-04T13:48:00.149Z,"  240"
2019-05-04T13:52:56.677Z,"  310"
2019-05-04T13:57:54.471Z,"  335"
2019-05-04T14:02:49.964Z,"  295"
2019-05-04T14:07:46.415Z,"  250"
2019-05-04T14:12:42.076Z,"  265"
2019-05-04T14:17:38.352Z,"  305"
2019-05-04T14:22:34.640Z,"  295"
2019-05-04T14:27:30.615Z,"  315"
2019-05-04T14:32:26.476Z,"  290"
2019-05-04T14:37:22.044Z,"  150"
2019-05-04T14:42:18.256Z,"  125"
2019-05-04T14:47:15.051Z,"  175"
2019-05-04T14:52:09.645Z,"  175"
2019-05-04T14:57:05.439Z,"  145"
2019-05-04T15:02:01.325Z,"  140"
2019-05-04T15:06:59.475Z,"  130"
2019-05-04T15:11:55.561Z,"  105"
2019-05-04T15:16:50.699Z,"   90"
2019-05-04T15:21:46.387Z,"   95"
2019-05-04T15:26:42.195Z,"  100"
2019-05-04T15:31:39.082Z,"  115"
2019-05-04T15:36:34.692Z,"  100"
2019-05-04T15:41:30.741Z,"   85"
2019-05-04T15:46:27.387Z,"  165"
2019-05-04T15:51:24.603Z,"  150"
2019-05-04T15:56:20.155Z,"  105"
2019-05-04T16:01:16.652Z,"   45"
2019-05-04T16:06:11.694Z,"   25"
2019-05-04T16:11:07.416Z,"   50"
2019-05-04T16:16:04.944Z,"  125"
2019-05-04T16:20:59.730Z,"  155"
2019-05-04T16:25:55.162Z,"  130"
2019-05-04T16:30:51.295Z,"   85"
2019-05-04T16:35:48.700Z,"   70"
2019-05-04T16:40:45.290Z,"   85"
2019-05-04T16:45:52.762Z,"   80"
2019-05-04T16:50:41.587Z,"   80"
2019-05-04T16:55:38.281Z,"   80"
2019-05-04T17:00:34.177Z,"   70"
2019-05-04T17:05:30.208Z,"   65"
2019-05-04T17:10:26.058Z,"   60"
2019-05-04T17:15:24.456Z,"   55"
2019-05-04T17:20:20.417Z,"   55"
2019-05-04T17:25:17.427Z,"   45"
2019-05-04T17:30:14.839Z,"   45"
2019-05-04T17:35:10.409Z,"   40"
2019-05-04T17:40:05.939Z,"   35"
2019-05-04T17:45:04.777Z,"   35"
2019-05-04T17:49:59.679Z,"   35"
2019-05-04T17:54:56.353Z,"   35"
2019-05-04T17:59:51.873Z,"   40"
2019-05-04T18:04:48.572Z,"   45"
2019-05-04T18:09:44.160Z,"   45"
2019-05-04T18:14:40.388Z,"   35"
2019-05-04T18:19:36.170Z,"   30"
2019-05-04T18:24:34.768Z,"   30"
2019-05-04T18:29:30.884Z,"   25"
2019-05-04T18:34:26.759Z,"   20"
2019-05-04T18:39:25.070Z,"   10"
2019-05-04T18:44:19.957Z,"   10"
2019-05-04T18:49:15.581Z,"    5"
2019-05-04T18:54:14.198Z,"    5"
2019-05-04T18:59:09.255Z,"    0"
2019-05-04T19:04:04.905Z,"    0"
2019-05-04T19:09:00.541Z,"    0"
2019-05-04T19:13:56.659Z,"    0"
2019-05-04T19:18:52.226Z,"    0"
2019-05-04T19:23:47.692Z,"    0"
2019-05-04T19:28:43.184Z,"    0"
2019-05-04T19:33:40.598Z,"    0"
2019-05-04T19:38:35.939Z,"    0"
2019-05-04T19:43:31.647Z,"    0"
2019-05-04T19:48:28.287Z,"    0"
2019-05-04T19:53:24.634Z,"    0"
2019-05-04T19:58:20.068Z,"    0"
2019-05-04T20:03:16.562Z,"    0"
2019-05-04T20:08:13.632Z,"    0"
2019-05-04T20:13:08.879Z,"    0"
2019-05-04T20:18:04.627Z,"    0"
2019-05-04T20:23:00.366Z,"    0"
2019-05-04T20:27:57.200Z,"    0"
2019-05-04T20:32:52.768Z,"    0"
2019-05-04T20:37:48.398Z,"    0"
2019-05-04T20:42:44.546Z,"    0"
2019-05-04T20:47:47.173Z,"    0"
2019-05-04T20:52:40.023Z,"    0"
2019-05-04T20:57:36.297Z,"    0"
2019-05-04T21:02:34.978Z,"    0"
2019-05-04T21:07:29.960Z,"    0"
2019-05-04T21:12:26.145Z,"    0"
2019-05-04T21:17:24.774Z,"    0"
2019-05-04T21:22:19.453Z,"    0"
2019-05-04T21:27:15.229Z,"    0"
2019-05-04T21:32:10.897Z,"    0"
2019-05-04T21:37:06.530Z,"    0"
2019-05-04T21:42:04.530Z,"    0"
2019-05-04T21:46:59.756Z,"    0"
2019-05-04T21:51:57.162Z,"    0"
2019-05-04T21:56:54.347Z,"    0"
2019-05-04T22:01:49.640Z,"    0"
2019-05-04T22:06:45.257Z,"    0"
2019-05-04T22:11:41.012Z,"    0"
2019-05-04T22:16:37.259Z,"    0"
2019-05-04T22:21:34.595Z,"    0"
2019-05-04T22:26:30.851Z,"    0"
2019-05-04T22:31:26.183Z,"    0"
2019-05-04T22:36:24.105Z,"    0"
2019-05-04T22:41:19.129Z,"    0"
2019-05-04T22:46:14.973Z,"    0"
2019-05-04T22:51:11.815Z,"    0"
2019-05-04T22:56:07.188Z,"    0"
2019-05-04T23:01:05.061Z,"    0"
2019-05-04T23:06:00.112Z,"    0"
2019-05-04T23:10:56.392Z,"    0"
2019-05-04T23:15:52.082Z,"    0"
2019-05-04T23:20:47.725Z,"    0"
2019-05-04T23:25:44.948Z,"    0"
2019-05-04T23:30:41.240Z,"    0"
2019-05-04T23:35:36.985Z,"    0"
2019-05-04T23:40:34.688Z,"    0"
2019-05-04T23:45:29.866Z,"    0"
2019-05-04T23:50:26.018Z,"    0"
2019-05-04T23:55:21.791Z,"    0"
